IAH weather

George Bush Intercontinental Houston Airport
Houston, Texas, United States

Public forecast

Using degrees Fahrenheit for public forecast. Weather courtesy of forecast.io.

METAR (pilot weather report)

Retrieved 2018/04/21 04:53 UTC (30 minutes ago):

KIAH 210453Z 10008KT 10SM BKN030 BKN160 BKN250 15/12 A3011 RMK AO2 SLP194 T01500117

TAF (pilot weather forecast)

Forecast is more than 12 hours old.

Retrieved 2018/04/20 00:42 UTC (1 day ago):

TAF KIAH 202339Z 2100/2206 12009KT P6SM BKN170 BKN250 FM210300 12006KT P6SM SCT180 BKN250 FM210800 12006KT P6SM FEW008 BKN025 BKN250 FM211000 10009KT P6SM SCT008 BKN015 FM211200 09009KT 6SM -DZ BR SCT008 OVC015 FM211700 13012KT P6SM BKN015 OVC025 FM212100 13009KT P6SM VCTS BKN025CB BKN040 PROB30 2122/2204 TSRA BKN015CB